Time;durP1;ratioP1;P1;durP2;ratioP2;P2;SDS_P1;SDS_P2;PMS_P1;PMS_P2;Temp;Humidity;BMP_temperature;BMP_pressure;BME280_temperature;BME280_humidity;BME280_pressure;Samples;Min_cycle;Max_cycle;Signal;HPM_P1;HPM_P2
2021/03/29 00:01:31;;;;;;;;;;;9.10;86.10;;;;;;4843571;29;20543;-85
2021/03/29 00:03:58;;;;;;;;;;;9.10;86.10;;;;;;4860775;29;19924;-85
2021/03/29 00:06:25;;;;;;;;;;;9.10;86.10;;;;;;4860709;29;19998;-86
2021/03/29 00:08:52;;;;;;;;;;;9.10;86.00;;;;;;4860235;29;20038;-85
2021/03/29 00:11:18;;;;;;;;;;;9.10;86.00;;;;;;4860824;29;19928;-85
2021/03/29 00:13:44;;;;;;;;;;;9.10;85.90;;;;;;4860897;29;19988;-85
2021/03/29 00:16:10;;;;;;;;;;;9.10;85.90;;;;;;4857226;29;20529;-85
2021/03/29 00:18:36;;;;;;;;;;;9.10;85.80;;;;;;4842371;29;19932;-85
2021/03/29 00:21:05;;;;;;;;;;;9.10;85.60;;;;;;4842255;29;19925;-85
2021/03/29 00:23:31;;;;;;;;;;;9.10;85.60;;;;;;4860068;29;19953;-85
2021/03/29 00:25:56;;;;;;;;;;;9.10;85.50;;;;;;4851753;29;19928;-85
2021/03/29 00:28:22;;;;;;;;;;;9.10;85.50;;;;;;4841868;29;19924;-85
2021/03/29 00:30:48;;;;;;;;;;;9.10;85.50;;;;;;4840456;29;19924;-85
2021/03/29 00:33:14;;;;;;;;;;;9.10;85.60;;;;;;4842054;29;19936;-85
2021/03/29 00:35:41;;;;;;;;;;;9.10;85.50;;;;;;4841412;29;19935;-85
2021/03/29 00:38:11;;;;;;;;;;;9.10;85.60;;;;;;4842275;29;19932;-85
2021/03/29 00:40:41;;;;;;;;;;;9.20;85.70;;;;;;4842259;29;19928;-85
2021/03/29 00:43:10;;;;;;;;;;;9.10;85.70;;;;;;4859149;29;20008;-85
2021/03/29 00:45:36;;;;;;;;;;;9.10;85.80;;;;;;4859918;29;19935;-86
2021/03/29 00:48:02;;;;;;;;;;;9.10;85.70;;;;;;4860423;29;19996;-85
2021/03/29 00:50:31;;;;;;;;;;;9.10;85.70;;;;;;4859952;29;19967;-85
2021/03/29 00:52:57;;;;;;;;;;;9.10;85.80;;;;;;4859637;29;20361;-85
2021/03/29 00:55:23;;;;;;;;;;;9.20;85.80;;;;;;4859848;29;19931;-85
2021/03/29 00:57:49;;;;;;;;;;;9.10;85.90;;;;;;4859686;29;20383;-86
2021/03/29 01:00:15;;;;;;;;;;;9.20;85.70;;;;;;4860122;29;19947;-85
2021/03/29 01:02:42;;;;;;;;;;;9.20;85.60;;;;;;4860286;29;19924;-85
2021/03/29 01:05:10;;;;;;;;;;;9.20;85.60;;;;;;4851266;29;19990;-85
2021/03/29 01:07:37;;;;;;;;;;;9.20;85.50;;;;;;4841873;29;20476;-85
2021/03/29 01:10:02;;;;;;;;;;;9.20;85.40;;;;;;4843161;29;19921;-85
2021/03/29 01:12:29;;;;;;;;;;;9.20;85.30;;;;;;4844487;29;19924;-85
2021/03/29 01:14:56;;;;;;;;;;;9.30;85.30;;;;;;4845103;29;19981;-85
2021/03/29 01:17:28;;;;;;;;;;;9.30;85.20;;;;;;4845798;29;19927;-85
2021/03/29 01:20:00;;;;;;;;;;;9.30;85.20;;;;;;4844569;29;20424;-85
2021/03/29 01:22:28;;;;;;;;;;;9.30;85.20;;;;;;4861807;29;19924;-85
2021/03/29 01:25:05;;;;;;;;;;;9.30;85.10;;;;;;4862906;29;19928;-85
2021/03/29 01:27:39;;;;;;;;;;;9.30;85.20;;;;;;4863205;29;20404;-86
2021/03/29 01:30:06;;;;;;;;;;;9.30;85.10;;;;;;4863030;29;19981;-85
2021/03/29 01:32:32;;;;;;;;;;;9.30;85.10;;;;;;4862050;29;19924;-85
2021/03/29 01:34:59;;;;;;;;;;;9.30;85.10;;;;;;4862833;29;20280;-85
2021/03/29 01:37:26;;;;;;;;;;;9.30;85.10;;;;;;4863134;29;19931;-85
2021/03/29 01:39:52;;;;;;;;;;;9.30;85.10;;;;;;4862444;29;20374;-85
2021/03/29 01:42:18;;;;;;;;;;;9.30;85.10;;;;;;4862452;29;19967;-85
2021/03/29 01:44:43;;;;;;;;;;;9.30;85.10;;;;;;4863192;29;19980;-86
2021/03/29 01:47:10;;;;;;;;;;;9.40;85.20;;;;;;4862257;29;20327;-85
2021/03/29 01:49:36;;;;;;;;;;;9.40;85.20;;;;;;4852686;29;19924;-84
2021/03/29 01:52:03;;;;;;;;;;;9.40;85.20;;;;;;4844355;29;20293;-85
2021/03/29 01:54:29;;;;;;;;;;;9.40;85.10;;;;;;4843568;29;19999;-85
2021/03/29 01:56:57;;;;;;;;;;;9.40;85.00;;;;;;4844272;29;19928;-85
2021/03/29 01:59:23;;;;;;;;;;;9.40;84.90;;;;;;4845088;29;19925;-85
2021/03/29 02:01:48;;;;;;;;;;;9.40;84.70;;;;;;4856872;29;20342;-85
2021/03/29 02:04:15;;;;;;;;;;;9.40;84.60;;;;;;4862306;29;20018;-85
2021/03/29 02:06:42;;;;;;;;;;;9.40;84.70;;;;;;4862503;29;19931;-85
2021/03/29 02:09:09;;;;;;;;;;;9.40;84.80;;;;;;4861692;29;20010;-85
2021/03/29 02:11:34;;;;;;;;;;;9.40;84.70;;;;;;4862566;29;20007;-86
2021/03/29 02:14:01;;;;;;;;;;;9.40;84.70;;;;;;4861337;29;19952;-85
2021/03/29 02:16:27;;;;;;;;;;;9.40;84.70;;;;;;4853857;29;19924;-86
2021/03/29 02:18:55;;;;;;;;;;;9.40;84.80;;;;;;4844243;29;19924;-85
2021/03/29 02:21:23;;;;;;;;;;;9.40;84.80;;;;;;4843156;29;19972;-86
2021/03/29 02:23:50;;;;;;;;;;;9.40;84.80;;;;;;4843852;29;19932;-86
2021/03/29 02:26:17;;;;;;;;;;;9.40;84.90;;;;;;4843376;29;20462;-85
2021/03/29 02:28:43;;;;;;;;;;;9.40;84.90;;;;;;4843426;29;19925;-85
2021/03/29 02:31:09;;;;;;;;;;;9.40;85.00;;;;;;4843736;29;20035;-85
2021/03/29 02:33:34;;;;;;;;;;;9.30;84.90;;;;;;4843782;29;20461;-86
2021/03/29 02:36:03;;;;;;;;;;;9.40;85.00;;;;;;4842817;29;19924;-86
2021/03/29 02:38:31;;;;;;;;;;;9.40;84.90;;;;;;4843667;29;19924;-85
2021/03/29 02:41:00;;;;;;;;;;;9.40;84.90;;;;;;4849085;29;19935;-86
2021/03/29 02:43:27;;;;;;;;;;;9.40;84.90;;;;;;4860463;29;20392;-86
2021/03/29 02:45:58;;;;;;;;;;;9.40;84.80;;;;;;4847581;29;19925;-85
2021/03/29 02:48:26;;;;;;;;;;;9.40;84.80;;;;;;4862081;29;19980;-86
2021/03/29 02:50:54;;;;;;;;;;;9.40;84.80;;;;;;4861224;29;19924;-85
2021/03/29 02:53:24;;;;;;;;;;;9.40;84.80;;;;;;4861478;29;19924;-85
2021/03/29 02:55:50;;;;;;;;;;;9.40;84.60;;;;;;4862185;29;19924;-86
2021/03/29 02:58:18;;;;;;;;;;;9.40;84.60;;;;;;4860950;29;20288;-85
2021/03/29 03:00:44;;;;;;;;;;;9.40;84.60;;;;;;4861724;29;20354;-86
2021/03/29 03:03:09;;;;;;;;;;;9.40;84.50;;;;;;4861235;29;19924;-85
2021/03/29 03:05:36;;;;;;;;;;;9.40;84.50;;;;;;4861112;29;19987;-87
2021/03/29 03:08:04;;;;;;;;;;;9.40;84.50;;;;;;4861338;29;20014;-84
2021/03/29 03:10:33;;;;;;;;;;;9.40;84.40;;;;;;4860921;29;20031;-84
2021/03/29 03:13:00;;;;;;;;;;;9.40;84.40;;;;;;4860887;29;19924;-85
2021/03/29 03:15:27;;;;;;;;;;;9.50;84.50;;;;;;4858323;29;19935;-85
2021/03/29 03:17:54;;;;;;;;;;;9.40;84.30;;;;;;4855558;29;19928;-86
2021/03/29 03:20:20;;;;;;;;;;;9.40;84.40;;;;;;4852134;29;19965;-87
2021/03/29 03:22:52;;;;;;;;;;;9.50;85.10;;;;;;4851550;29;19928;-87
2021/03/29 03:25:28;;;;;;;;;;;9.40;84.30;;;;;;4850474;29;20721;-86
2021/03/29 03:27:54;;;;;;;;;;;9.40;84.30;;;;;;4851168;29;20014;-85
2021/03/29 03:30:25;;;;;;;;;;;9.40;84.40;;;;;;4849241;29;20011;-86
2021/03/29 03:36:28;;;;;;;;;;;9.40;84.50;;;;;;4851363;29;19919;-87
2021/03/29 03:39:06;;;;;;;;;;;9.30;84.40;;;;;;4850773;29;19924;-86
2021/03/29 03:41:39;;;;;;;;;;;9.40;84.50;;;;;;4850843;29;20395;-86
2021/03/29 03:44:05;;;;;;;;;;;9.30;84.40;;;;;;4855785;29;19928;-87
2021/03/29 03:46:35;;;;;;;;;;;9.30;84.50;;;;;;4852280;29;19924;-87
2021/03/29 03:49:03;;;;;;;;;;;9.30;84.40;;;;;;4851368;29;19931;-87
2021/03/29 03:51:30;;;;;;;;;;;9.30;84.50;;;;;;4856722;29;19931;-87
2021/03/29 03:53:58;;;;;;;;;;;9.30;84.40;;;;;;4857955;29;19924;-89
2021/03/29 03:56:24;;;;;;;;;;;9.30;84.40;;;;;;4854637;29;19971;-88
2021/03/29 03:58:53;;;;;;;;;;;9.30;84.50;;;;;;4855448;29;19956;-87
2021/03/29 04:01:19;;;;;;;;;;;9.30;84.50;;;;;;4850739;29;19928;-88
2021/03/29 04:03:45;;;;;;;;;;;9.20;84.50;;;;;;4855205;29;19931;-87
2021/03/29 04:06:11;;;;;;;;;;;9.20;84.50;;;;;;4853311;29;20364;-87
2021/03/29 04:08:37;;;;;;;;;;;9.20;84.60;;;;;;4857555;29;19932;-88
2021/03/29 04:11:04;;;;;;;;;;;9.20;84.60;;;;;;4855601;29;19959;-87
2021/03/29 04:13:30;;;;;;;;;;;9.20;84.70;;;;;;4859240;29;19932;-87
2021/03/29 04:15:57;;;;;;;;;;;9.10;84.90;;;;;;4860429;29;20447;-88
2021/03/29 04:18:23;;;;;;;;;;;9.10;84.80;;;;;;4860240;29;19924;-88
2021/03/29 04:20:49;;;;;;;;;;;9.10;84.80;;;;;;4860323;29;20257;-88
2021/03/29 04:23:14;;;;;;;;;;;9.10;84.90;;;;;;4857133;29;19999;-88
2021/03/29 04:25:40;;;;;;;;;;;9.10;84.90;;;;;;4842294;29;20024;-87
2021/03/29 04:28:06;;;;;;;;;;;9.10;85.00;;;;;;4841560;29;19993;-89
2021/03/29 04:30:31;;;;;;;;;;;9.10;85.00;;;;;;4849869;29;19924;-87
2021/03/29 04:33:00;;;;;;;;;;;9.10;85.00;;;;;;4842607;29;20011;-88
2021/03/29 04:35:27;;;;;;;;;;;9.10;85.00;;;;;;4842097;29;19932;-88
2021/03/29 04:37:54;;;;;;;;;;;9.10;85.10;;;;;;4841951;29;20338;-87
2021/03/29 04:40:20;;;;;;;;;;;9.10;85.20;;;;;;4842203;29;19924;-88
2021/03/29 04:42:46;;;;;;;;;;;9.10;85.10;;;;;;4841599;29;20130;-88
2021/03/29 04:45:14;;;;;;;;;;;9.10;85.10;;;;;;4845200;29;20031;-87
2021/03/29 04:47:43;;;;;;;;;;;9.00;85.80;;;;;;4845610;29;19948;-87
2021/03/29 04:50:09;;;;;;;;;;;9.10;85.20;;;;;;4846404;29;19950;-88
2021/03/29 04:52:35;;;;;;;;;;;9.10;85.20;;;;;;4845821;29;19963;-88
2021/03/29 04:55:01;;;;;;;;;;;9.00;85.10;;;;;;4842989;29;19963;-87
2021/03/29 04:57:55;;;;;;;;;;;9.00;85.20;;;;;;4845912;29;19936;-88
2021/03/29 05:00:26;;;;;;;;;;;9.00;85.30;;;;;;4845371;29;20023;-87
2021/03/29 05:03:01;;;;;;;;;;;9.00;85.40;;;;;;4852919;29;19927;-87
2021/03/29 05:05:30;;;;;;;;;;;9.00;85.40;;;;;;4859172;29;20016;-87
2021/03/29 05:07:56;;;;;;;;;;;9.00;85.40;;;;;;4853515;29;19954;-88
2021/03/29 05:10:25;;;;;;;;;;;9.00;85.30;;;;;;4851146;29;19924;-87
2021/03/29 05:12:51;;;;;;;;;;;9.00;85.40;;;;;;4861201;29;20010;-87
2021/03/29 05:15:17;;;;;;;;;;;9.00;85.40;;;;;;4863149;29;20006;-87
2021/03/29 05:17:55;;;;;;;;;;;9.00;85.40;;;;;;4859341;29;20369;-87
2021/03/29 05:20:20;;;;;;;;;;;8.90;85.40;;;;;;4861263;29;19931;-87
2021/03/29 05:22:46;;;;;;;;;;;9.00;85.40;;;;;;4859555;29;19928;-86
2021/03/29 05:25:12;;;;;;;;;;;9.00;85.40;;;;;;4853939;29;19924;-87
2021/03/29 05:27:38;;;;;;;;;;;8.90;85.40;;;;;;4855858;29;19928;-86
2021/03/29 05:30:04;;;;;;;;;;;8.90;85.60;;;;;;4851699;29;19925;-86
2021/03/29 05:32:30;;;;;;;;;;;8.90;85.60;;;;;;4854250;29;19924;-87
2021/03/29 05:35:00;;;;;;;;;;;8.90;85.70;;;;;;4861904;29;19988;-88
2021/03/29 05:37:26;;;;;;;;;;;8.90;85.70;;;;;;4844790;29;20031;-88
2021/03/29 05:39:53;;;;;;;;;;;8.90;85.90;;;;;;4844347;29;19924;-88
2021/03/29 05:42:19;;;;;;;;;;;8.90;86.00;;;;;;4846235;29;20353;-84
2021/03/29 05:48:42;;;;;;;;;;;8.80;86.00;;;;;;4785168;29;19928;-84
2021/03/29 05:51:30;;;;;;;;;;;8.80;86.10;;;;;;4780155;29;20284;-84
2021/03/29 05:53:59;;;;;;;;;;;8.80;86.30;;;;;;4843422;29;19928;-85
2021/03/29 05:56:27;;;;;;;;;;;8.80;86.20;;;;;;4848678;29;19928;-84
2021/03/29 06:01:45;;;;;;;;;;;8.80;86.40;;;;;;4851991;29;19992;-83
2021/03/29 06:04:11;;;;;;;;;;;8.80;86.40;;;;;;4854040;29;19924;-84
2021/03/29 06:06:48;;;;;;;;;;;8.80;86.50;;;;;;4859361;29;19928;-84
2021/03/29 06:09:32;;;;;;;;;;;8.80;86.50;;;;;;4851980;29;19924;-82
2021/03/29 06:11:57;;;;;;;;;;;8.80;86.50;;;;;;4859914;29;20026;-83
2021/03/29 06:14:23;;;;;;;;;;;8.80;86.60;;;;;;4861075;29;20010;-82
2021/03/29 06:17:04;;;;;;;;;;;8.90;86.60;;;;;;4862232;29;19931;-82
2021/03/29 06:19:36;;;;;;;;;;;8.90;86.70;;;;;;4862068;29;20379;-82
2021/03/29 06:22:17;;;;;;;;;;;8.90;86.70;;;;;;4861507;29;19924;-82
2021/03/29 06:24:55;;;;;;;;;;;8.90;86.70;;;;;;4862365;29;20019;-82
2021/03/29 06:27:21;;;;;;;;;;;8.90;86.80;;;;;;4860766;29;19979;-82
2021/03/29 06:29:47;;;;;;;;;;;8.90;86.80;;;;;;4854514;29;19971;-82
2021/03/29 06:32:17;;;;;;;;;;;9.00;86.70;;;;;;4856950;29;20391;-82
2021/03/29 06:34:42;;;;;;;;;;;9.00;87.60;;;;;;4852672;29;19931;-82
2021/03/29 06:37:08;;;;;;;;;;;9.00;86.80;;;;;;4847593;29;19936;-82
2021/03/29 06:39:35;;;;;;;;;;;9.00;86.70;;;;;;4843360;29;19973;-82
2021/03/29 06:42:01;;;;;;;;;;;9.00;86.90;;;;;;4856826;29;19924;-83
2021/03/29 06:44:30;;;;;;;;;;;9.00;86.90;;;;;;4857386;29;19935;-81
2021/03/29 06:47:05;;;;;;;;;;;9.10;87.10;;;;;;4854671;29;20399;-82
2021/03/29 06:49:38;;;;;;;;;;;9.10;87.10;;;;;;4845859;29;20061;-83
2021/03/29 06:52:22;;;;;;;;;;;9.10;87.20;;;;;;4849117;29;19982;-85
2021/03/29 06:54:48;;;;;;;;;;;9.20;87.30;;;;;;4860998;29;19924;-88
2021/03/29 06:57:14;;;;;;;;;;;9.20;87.20;;;;;;4860425;29;19924;-86
2021/03/29 06:59:39;;;;;;;;;;;9.30;87.20;;;;;;4842797;29;20119;-84
2021/03/29 07:02:10;;;;;;;;;;;9.30;87.30;;;;;;4850563;29;19940;-82
2021/03/29 07:04:39;;;;;;;;;;;9.40;87.30;;;;;;4856209;29;19998;-82
2021/03/29 07:07:05;;;;;;;;;;;9.40;87.10;;;;;;4848004;29;19950;-83
2021/03/29 07:09:34;;;;;;;;;;;9.50;87.00;;;;;;4846320;29;19924;-82
2021/03/29 07:12:00;;;;;;;;;;;9.60;87.00;;;;;;4859909;29;19928;-82
2021/03/29 07:14:27;;;;;;;;;;;9.60;86.90;;;;;;4861253;29;20553;-82
2021/03/29 07:17:01;;;;;;;;;;;9.70;86.80;;;;;;4860753;29;20310;-82
2021/03/29 07:19:33;;;;;;;;;;;9.80;86.90;;;;;;4850348;29;19947;-82
2021/03/29 07:21:59;;;;;;;;;;;9.80;86.80;;;;;;4842768;29;19924;-82
2021/03/29 07:24:30;;;;;;;;;;;9.90;86.50;;;;;;4842429;29;19973;-82
2021/03/29 07:26:59;;;;;;;;;;;9.90;86.40;;;;;;4842816;29;19931;-80
2021/03/29 07:29:29;;;;;;;;;;;10.00;86.40;;;;;;4854058;29;20422;-80
2021/03/29 07:32:05;;;;;;;;;;;10.10;86.40;;;;;;4855286;29;20299;-81
2021/03/29 07:34:40;;;;;;;;;;;10.10;86.50;;;;;;4854621;29;19931;-81
2021/03/29 07:37:24;;;;;;;;;;;10.20;86.30;;;;;;4855593;29;19920;-81
2021/03/29 07:39:50;;;;;;;;;;;10.30;86.20;;;;;;4860056;29;19951;-82
2021/03/29 07:42:25;;;;;;;;;;;10.40;85.90;;;;;;4860715;29;19968;-82
2021/03/29 07:45:11;;;;;;;;;;;10.50;85.80;;;;;;4860074;29;19987;-82
2021/03/29 07:47:55;;;;;;;;;;;10.50;85.70;;;;;;4849334;29;19960;-82
2021/03/29 07:50:24;;;;;;;;;;;10.60;85.50;;;;;;4858767;29;19924;-81
2021/03/29 07:53:00;;;;;;;;;;;10.70;85.60;;;;;;4855334;29;19924;-81
2021/03/29 07:55:34;;;;;;;;;;;10.80;85.50;;;;;;4852748;29;19924;-82
2021/03/29 07:58:01;;;;;;;;;;;10.80;85.60;;;;;;4858545;29;20368;-82
2021/03/29 08:00:28;;;;;;;;;;;10.90;85.30;;;;;;4856245;29;20388;-82
2021/03/29 08:02:55;;;;;;;;;;;11.00;85.00;;;;;;4851184;29;19955;-82
2021/03/29 08:05:37;;;;;;;;;;;11.10;84.90;;;;;;4852537;29;19935;-81
2021/03/29 08:08:03;;;;;;;;;;;11.10;85.00;;;;;;4860211;29;20292;-81
2021/03/29 08:11:10;;;;;;;;;;;11.20;84.70;;;;;;4860398;29;19924;-82
2021/03/29 08:13:43;;;;;;;;;;;11.20;84.70;;;;;;4802988;29;20429;-82
2021/03/29 08:16:10;;;;;;;;;;;11.30;84.70;;;;;;4786882;29;20022;-82
2021/03/29 08:18:54;;;;;;;;;;;11.40;84.50;;;;;;4834438;29;19927;-82
2021/03/29 08:21:44;;;;;;;;;;;11.40;84.50;;;;;;4878779;29;19928;-82
2021/03/29 08:24:35;;;;;;;;;;;11.50;84.60;;;;;;4872388;29;19989;-82
2021/03/29 08:27:06;;;;;;;;;;;11.50;84.30;;;;;;4839897;29;19928;-82
2021/03/29 08:29:33;;;;;;;;;;;11.60;84.30;;;;;;4864381;29;20010;-82
2021/03/29 08:32:01;;;;;;;;;;;11.80;84.50;;;;;;4862277;29;20026;-82
2021/03/29 08:34:28;;;;;;;;;;;11.80;84.30;;;;;;4863108;29;20392;-82
2021/03/29 08:36:54;;;;;;;;;;;11.90;83.90;;;;;;4863826;29;19996;-82
2021/03/29 08:39:20;;;;;;;;;;;11.90;83.90;;;;;;4863318;29;20006;-82
2021/03/29 08:41:49;;;;;;;;;;;12.00;83.90;;;;;;4861522;29;19924;-81
2021/03/29 08:44:15;;;;;;;;;;;12.10;84.10;;;;;;4854665;29;19932;-82
2021/03/29 08:46:44;;;;;;;;;;;12.10;83.80;;;;;;4863784;29;19932;-82
2021/03/29 08:49:10;;;;;;;;;;;12.20;83.80;;;;;;4862799;29;19931;-81
2021/03/29 08:51:36;;;;;;;;;;;12.20;83.70;;;;;;4852292;29;20301;-82
2021/03/29 08:54:05;;;;;;;;;;;12.30;83.80;;;;;;4847747;29;19925;-82
2021/03/29 08:56:43;;;;;;;;;;;12.40;83.80;;;;;;4847289;29;20392;-81
2021/03/29 08:59:10;;;;;;;;;;;12.50;83.60;;;;;;4863636;29;19931;-81
2021/03/29 09:01:36;;;;;;;;;;;12.60;83.60;;;;;;4863805;29;20285;-81
2021/03/29 09:04:02;;;;;;;;;;;12.70;83.50;;;;;;4861197;29;20022;-80
2021/03/29 09:06:32;;;;;;;;;;;12.70;82.80;;;;;;4857041;29;20289;-81
2021/03/29 09:08:58;;;;;;;;;;;12.80;82.40;;;;;;4858850;29;19924;-80
2021/03/29 09:11:28;;;;;;;;;;;12.90;82.30;;;;;;4861803;29;20357;-80
2021/03/29 09:13:56;;;;;;;;;;;13.00;82.50;;;;;;4863670;29;19924;-81
2021/03/29 09:16:22;;;;;;;;;;;13.00;81.90;;;;;;4849689;29;20023;-80
2021/03/29 09:18:49;;;;;;;;;;;13.10;81.60;;;;;;4858270;29;19927;-80
2021/03/29 09:21:22;;;;;;;;;;;13.20;81.70;;;;;;4863030;29;20289;-82
2021/03/29 09:23:48;;;;;;;;;;;13.20;81.80;;;;;;4862688;29;19923;-82
2021/03/29 09:26:22;;;;;;;;;;;13.30;81.20;;;;;;4856398;29;20259;-82
2021/03/29 09:28:50;;;;;;;;;;;13.30;81.50;;;;;;4858383;29;20021;-85
2021/03/29 09:31:21;;;;;;;;;;;13.40;81.30;;;;;;4845919;29;19928;-85
2021/03/29 09:33:47;;;;;;;;;;;13.40;81.10;;;;;;4845032;29;19959;-84
2021/03/29 09:36:14;;;;;;;;;;;13.50;80.60;;;;;;4847694;29;19975;-83
2021/03/29 09:38:40;;;;;;;;;;;13.60;81.00;;;;;;4862887;29;19928;-86
2021/03/29 09:41:19;;;;;;;;;;;13.60;81.20;;;;;;4861439;29;19930;-82
2021/03/29 09:43:46;;;;;;;;;;;13.70;79.90;;;;;;4857754;29;20024;-84
2021/03/29 09:46:13;;;;;;;;;;;13.70;80.00;;;;;;4856301;29;19931;-83
2021/03/29 09:48:41;;;;;;;;;;;13.80;79.60;;;;;;4860418;29;19931;-84
2021/03/29 09:51:17;;;;;;;;;;;13.80;79.60;;;;;;4862371;29;19927;-85
2021/03/29 09:53:43;;;;;;;;;;;13.90;79.80;;;;;;4862934;29;19924;-83
2021/03/29 09:56:30;;;;;;;;;;;13.90;79.30;;;;;;4849374;29;19949;-84
2021/03/29 09:58:55;;;;;;;;;;;13.90;79.00;;;;;;4862145;29;19924;-82
2021/03/29 10:01:22;;;;;;;;;;;13.90;79.50;;;;;;4862406;29;19983;-86
2021/03/29 10:03:55;;;;;;;;;;;13.90;79.70;;;;;;4860380;29;20401;-87
2021/03/29 10:06:21;;;;;;;;;;;14.00;80.00;;;;;;4853710;29;19928;-83
2021/03/29 10:08:54;;;;;;;;;;;14.10;79.70;;;;;;4844432;29;19929;-82
2021/03/29 10:11:19;;;;;;;;;;;14.10;79.70;;;;;;4843756;29;19931;-82
2021/03/29 10:13:46;;;;;;;;;;;14.20;79.60;;;;;;4843408;29;20414;-82
2021/03/29 10:16:19;;;;;;;;;;;14.30;79.00;;;;;;4848120;29;19960;-82
2021/03/29 10:18:44;;;;;;;;;;;14.30;78.40;;;;;;4857705;29;19937;-82
2021/03/29 10:21:13;;;;;;;;;;;14.30;78.50;;;;;;4858349;29;20304;-83
2021/03/29 10:23:41;;;;;;;;;;;14.30;77.50;;;;;;4858414;29;19924;-83
2021/03/29 10:26:35;;;;;;;;;;;14.30;78.80;;;;;;4862490;29;20285;-82
2021/03/29 10:29:03;;;;;;;;;;;14.40;78.90;;;;;;4861908;29;19924;-83
2021/03/29 10:31:30;;;;;;;;;;;14.40;78.30;;;;;;4846929;29;19973;-82
2021/03/29 10:33:56;;;;;;;;;;;14.50;78.50;;;;;;4843330;29;19928;-83
2021/03/29 10:36:22;;;;;;;;;;;14.60;78.80;;;;;;4856178;29;19924;-84
2021/03/29 10:38:51;;;;;;;;;;;14.60;78.90;;;;;;4858423;29;20411;-83
2021/03/29 10:41:16;;;;;;;;;;;14.70;78.60;;;;;;4857574;29;19931;-85
2021/03/29 10:43:42;;;;;;;;;;;14.70;78.40;;;;;;4861931;29;19924;-82
2021/03/29 10:46:08;;;;;;;;;;;14.80;78.40;;;;;;4859660;29;19928;-81
2021/03/29 10:48:33;;;;;;;;;;;14.90;78.60;;;;;;4860670;29;20318;-83
2021/03/29 10:51:00;;;;;;;;;;;14.90;78.50;;;;;;4854400;29;19980;-84
2021/03/29 10:53:26;;;;;;;;;;;15.00;78.60;;;;;;4875677;29;19927;-84
2021/03/29 10:55:52;;;;;;;;;;;15.00;77.60;;;;;;4863542;29;19928;-84
2021/03/29 10:58:17;;;;;;;;;;;15.10;76.70;;;;;;4863901;29;19987;-82
2021/03/29 11:00:46;;;;;;;;;;;15.10;77.30;;;;;;4862232;29;19927;-82
2021/03/29 11:03:12;;;;;;;;;;;15.10;77.30;;;;;;4871686;29;20369;-84
2021/03/29 11:05:37;;;;;;;;;;;15.20;77.10;;;;;;4858237;29;19924;-83
2021/03/29 11:08:06;;;;;;;;;;;15.20;76.20;;;;;;4863418;29;20010;-83
2021/03/29 11:10:33;;;;;;;;;;;15.20;76.60;;;;;;4870229;29;19939;-83
2021/03/29 11:13:03;;;;;;;;;;;15.30;76.90;;;;;;4871473;29;19930;-84
2021/03/29 11:15:31;;;;;;;;;;;15.40;76.60;;;;;;4865527;29;19958;-83
2021/03/29 11:17:56;;;;;;;;;;;15.40;76.30;;;;;;4859730;29;19925;-83
2021/03/29 11:20:22;;;;;;;;;;;15.40;76.00;;;;;;4874221;29;20030;-83
2021/03/29 11:22:47;;;;;;;;;;;15.40;76.10;;;;;;4867131;29;19924;-83
2021/03/29 11:25:13;;;;;;;;;;;15.40;77.10;;;;;;4868807;29;19986;-83
2021/03/29 11:27:39;;;;;;;;;;;15.50;76.40;;;;;;4867148;29;20342;-83
2021/03/29 11:30:09;;;;;;;;;;;15.50;76.80;;;;;;4864564;29;19927;-83
2021/03/29 11:32:35;;;;;;;;;;;15.60;76.60;;;;;;4857754;29;19932;-83
2021/03/29 11:35:04;;;;;;;;;;;15.70;77.00;;;;;;4857206;29;20385;-84
2021/03/29 11:37:36;;;;;;;;;;;15.70;76.70;;;;;;4839087;29;19960;-84
2021/03/29 11:40:02;;;;;;;;;;;15.70;76.00;;;;;;4875150;29;19932;-81
2021/03/29 11:42:28;;;;;;;;;;;15.80;75.90;;;;;;4852576;29;20323;-83
2021/03/29 11:44:53;;;;;;;;;;;15.80;74.80;;;;;;4859326;29;20017;-84
2021/03/29 11:47:21;;;;;;;;;;;15.80;73.50;;;;;;4863677;29;19980;-84
2021/03/29 11:49:55;;;;;;;;;;;15.80;74.50;;;;;;4856668;29;20079;-83
2021/03/29 11:53:00;;;;;;;;;;;15.80;74.60;;;;;;4839123;29;19928;-86
2021/03/29 11:55:28;;;;;;;;;;;15.80;74.30;;;;;;4861921;29;19924;-85
2021/03/29 11:58:24;;;;;;;;;;;15.80;75.00;;;;;;4873037;29;20321;-83
2021/03/29 12:01:07;;;;;;;;;;;15.90;75.30;;;;;;4856023;29;19924;-84
2021/03/29 12:07:15;;;;;;;;;;;16.00;75.70;;;;;;4860551;29;19924;-84
2021/03/29 12:12:57;;;;;;;;;;;16.10;75.80;;;;;;4856935;29;20437;-84
2021/03/29 12:15:25;;;;;;;;;;;16.20;75.50;;;;;;4871994;29;19990;-84
2021/03/29 12:17:58;;;;;;;;;;;16.30;75.30;;;;;;4873904;29;20049;-84
2021/03/29 12:20:38;;;;;;;;;;;16.30;74.90;;;;;;4870753;29;19924;-85
2021/03/29 12:23:04;;;;;;;;;;;16.40;75.10;;;;;;4867916;29;19924;-82
2021/03/29 12:25:30;;;;;;;;;;;16.50;74.60;;;;;;4874265;29;20388;-84
2021/03/29 12:28:09;;;;;;;;;;;16.50;75.60;;;;;;4850298;29;19954;-83
2021/03/29 12:30:42;;;;;;;;;;;16.60;75.10;;;;;;4860925;29;19930;-83
2021/03/29 12:33:20;;;;;;;;;;;16.60;74.00;;;;;;4858464;29;19930;-83
2021/03/29 12:35:58;;;;;;;;;;;16.60;74.00;;;;;;4865325;29;19924;-83
2021/03/29 12:38:25;;;;;;;;;;;16.70;74.40;;;;;;4873225;29;19924;-83
2021/03/29 12:40:52;;;;;;;;;;;16.70;74.10;;;;;;4868370;29;20010;-81
2021/03/29 12:43:30;;;;;;;;;;;16.70;73.70;;;;;;4866341;29;19931;-83
2021/03/29 12:45:59;;;;;;;;;;;16.70;72.80;;;;;;4875485;29;19928;-83
2021/03/29 12:48:25;;;;;;;;;;;16.70;73.80;;;;;;4865078;29;20057;-83
2021/03/29 12:50:50;;;;;;;;;;;16.70;73.70;;;;;;4870216;29;20022;-82
2021/03/29 12:53:16;;;;;;;;;;;16.80;73.50;;;;;;4871862;29;20094;-82
2021/03/29 12:55:42;;;;;;;;;;;16.80;72.70;;;;;;4862311;29;19931;-83
2021/03/29 12:58:11;;;;;;;;;;;16.80;73.60;;;;;;4856585;29;19924;-84
2021/03/29 13:00:36;;;;;;;;;;;16.80;73.90;;;;;;4877130;29;19951;-85
2021/03/29 13:03:02;;;;;;;;;;;16.90;73.00;;;;;;4867567;29;19924;-87
2021/03/29 13:05:39;;;;;;;;;;;16.90;72.10;;;;;;4862006;29;19950;-85
2021/03/29 13:08:17;;;;;;;;;;;16.90;72.30;;;;;;4878158;29;20007;-86
2021/03/29 13:13:27;;;;;;;;;;;16.90;72.10;;;;;;4877132;29;20345;-85
2021/03/29 13:15:53;;;;;;;;;;;17.00;71.90;;;;;;4861259;29;19924;-85
2021/03/29 13:18:28;;;;;;;;;;;17.00;72.30;;;;;;4858329;29;19928;-85
2021/03/29 13:20:57;;;;;;;;;;;17.00;72.80;;;;;;4858777;29;20007;-86
2021/03/29 13:23:23;;;;;;;;;;;17.00;72.10;;;;;;4850611;29;19928;-84
2021/03/29 13:26:01;;;;;;;;;;;17.00;71.30;;;;;;4864113;29;19979;-85
2021/03/29 13:28:30;;;;;;;;;;;17.00;72.20;;;;;;4862986;29;19924;-86
2021/03/29 13:30:55;;;;;;;;;;;17.00;71.90;;;;;;4868481;29;20022;-86
2021/03/29 13:33:28;;;;;;;;;;;17.00;72.00;;;;;;4868515;29;20011;-86
2021/03/29 13:35:54;;;;;;;;;;;17.00;71.70;;;;;;4878601;29;19940;-85
2021/03/29 13:38:19;;;;;;;;;;;17.10;71.90;;;;;;4859770;29;19927;-85
2021/03/29 13:40:45;;;;;;;;;;;17.10;72.90;;;;;;4870689;29;19924;-85
2021/03/29 13:43:11;;;;;;;;;;;17.10;71.90;;;;;;4865733;29;19928;-89
2021/03/29 13:45:37;;;;;;;;;;;17.20;72.30;;;;;;4865632;29;20479;-85
2021/03/29 13:48:02;;;;;;;;;;;17.20;71.60;;;;;;4867354;29;19936;-83
2021/03/29 13:50:30;;;;;;;;;;;17.20;72.90;;;;;;4868221;29;19930;-84
2021/03/29 13:52:55;;;;;;;;;;;17.20;70.90;;;;;;4862931;29;19973;-83
2021/03/29 13:55:23;;;;;;;;;;;17.30;71.60;;;;;;4852237;29;19924;-84
2021/03/29 13:57:49;;;;;;;;;;;17.30;71.40;;;;;;4853988;29;19930;-87
2021/03/29 14:00:15;;;;;;;;;;;17.30;71.80;;;;;;4864620;29;19924;-85
2021/03/29 14:02:41;;;;;;;;;;;17.30;71.30;;;;;;4860040;29;19928;-83
2021/03/29 14:05:08;;;;;;;;;;;17.40;71.20;;;;;;4854916;29;20337;-85
2021/03/29 14:08:00;;;;;;;;;;;17.40;70.60;;;;;;4856602;29;19927;-86
2021/03/29 14:13:09;;;;;;;;;;;17.40;72.20;;;;;;4885475;23;19923;-84
2021/03/29 14:15:44;;;;;;;;;;;17.40;70.60;;;;;;4972465;23;21758;-84
2021/03/29 14:18:11;;;;;;;;;;;17.40;71.40;;;;;;4860065;29;20361;-83
2021/03/29 14:20:51;;;;;;;;;;;17.50;71.90;;;;;;4862337;29;19932;-90
2021/03/29 14:23:17;;;;;;;;;;;17.50;71.70;;;;;;4849738;29;20400;-83
2021/03/29 14:26:25;;;;;;;;;;;17.60;71.00;;;;;;4843391;29;20038;-85
2021/03/29 14:28:57;;;;;;;;;;;17.50;70.60;;;;;;4854091;29;19924;-82
2021/03/29 14:31:23;;;;;;;;;;;17.50;70.70;;;;;;4853943;29;20324;-84
2021/03/29 14:33:55;;;;;;;;;;;17.50;70.80;;;;;;4850699;29;19920;-84
2021/03/29 14:39:03;;;;;;;;;;;17.50;70.00;;;;;;4843246;29;20003;-83
2021/03/29 14:41:45;;;;;;;;;;;17.60;71.20;;;;;;4843211;29;19924;-83
2021/03/29 14:46:56;;;;;;;;;;;17.60;70.70;;;;;;4847463;29;19924;-83
2021/03/29 14:49:23;;;;;;;;;;;17.60;71.20;;;;;;4849754;29;19932;-83
2021/03/29 14:51:49;;;;;;;;;;;17.60;70.80;;;;;;4842878;29;20019;-83
2021/03/29 14:54:15;;;;;;;;;;;17.60;70.90;;;;;;4842361;29;19984;-83
2021/03/29 14:56:40;;;;;;;;;;;17.60;70.80;;;;;;4843638;29;20365;-83
2021/03/29 14:59:07;;;;;;;;;;;17.60;69.50;;;;;;4849469;29;19960;-83
2021/03/29 15:01:34;;;;;;;;;;;17.60;69.40;;;;;;4857960;29;19924;-83
2021/03/29 15:04:00;;;;;;;;;;;17.60;69.90;;;;;;4850064;29;19978;-83